Time;durP1;ratioP1;P1;durP2;ratioP2;P2;SDS_P1;SDS_P2;PMS_P1;PMS_P2;Temp;Humidity;BMP_temperature;BMP_pressure;BME280_temperature;BME280_humidity;BME280_pressure;Samples;Min_cycle;Max_cycle;Signal;HPM_P1;HPM_P2
2022/12/18 00:01:59;;;;;;;10.00;7.70;;;;;;;;;;107243;1300;22553;-30
2022/12/18 00:04:33;;;;;;;9.50;7.70;;;;;;;;;;107299;1300;22582;-30
2022/12/18 00:07:07;;;;;;;10.00;7.40;;;;;;;;;;107466;1283;24885;-29
2022/12/18 00:09:41;;;;;;;9.00;7.50;;;;;;;;;;107710;1296;22588;-29
2022/12/18 00:12:14;;;;;;;9.20;7.80;;;;;;;;;;107711;1298;22671;-30
2022/12/18 00:14:51;;;;;;;8.90;7.30;;;;;;;;;;107709;1283;22670;-29
2022/12/18 00:17:25;;;;;;;8.40;7.30;;;;;;;;;;107413;1286;22614;-30
2022/12/18 00:19:58;;;;;;;8.60;7.20;;;;;;;;;;107264;1285;22564;-30
2022/12/18 00:22:32;;;;;;;9.30;7.00;;;;;;;;;;107234;1300;22580;-30
2022/12/18 00:25:07;;;;;;;8.80;7.20;;;;;;;;;;107252;1300;22583;-30
2022/12/18 00:27:40;;;;;;;8.80;7.20;;;;;;;;;;107520;1283;25910;-30
2022/12/18 00:30:16;;;;;;;8.20;7.00;;;;;;;;;;107711;1297;22558;-30
2022/12/18 00:32:49;;;;;;;9.20;7.80;;;;;;;;;;107718;1296;22592;-30
2022/12/18 00:35:23;;;;;;;9.30;7.60;;;;;;;;;;107742;1297;22669;-30
2022/12/18 00:37:57;;;;;;;8.80;7.20;;;;;;;;;;107378;1297;22579;-29
2022/12/18 00:40:29;;;;;;;;;;;;;;;;;;107275;1300;22543;-30
2022/12/18 00:43:02;;;;;;;9.40;6.80;;;;;;;;;;107237;1300;22567;-30
2022/12/18 00:45:36;;;;;;;9.70;7.90;;;;;;;;;;107248;1300;22567;-30
2022/12/18 00:48:10;;;;;;;9.00;7.20;;;;;;;;;;107484;1283;22570;-30
2022/12/18 00:50:43;;;;;;;8.90;7.00;;;;;;;;;;107737;1287;22573;-30
2022/12/18 00:53:18;;;;;;;9.50;7.40;;;;;;;;;;107695;1297;22569;-30
2022/12/18 00:55:52;;;;;;;8.40;7.10;;;;;;;;;;107703;1297;22568;-30
2022/12/18 00:58:26;;;;;;;8.90;7.20;;;;;;;;;;107372;1286;24812;-30
2022/12/18 01:00:59;;;;;;;9.10;7.50;;;;;;;;;;107267;1300;22564;-30
2022/12/18 01:03:33;;;;;;;9.10;7.30;;;;;;;;;;107230;1293;22566;-30
2022/12/18 01:06:13;;;;;;;8.60;6.80;;;;;;;;;;107216;1300;22581;-30
2022/12/18 01:08:48;;;;;;;8.60;6.80;;;;;;;;;;107540;1282;22551;-30
2022/12/18 01:11:24;;;;;;;9.10;7.60;;;;;;;;;;107718;1296;22564;-30
2022/12/18 01:13:58;;;;;;;9.60;7.60;;;;;;;;;;107707;1297;22559;-30
2022/12/18 01:16:32;;;;;;;9.50;7.90;;;;;;;;;;107726;1283;22560;-30
2022/12/18 01:19:06;;;;;;;9.90;7.10;;;;;;;;;;107279;1286;22611;-30
2022/12/18 01:21:40;;;;;;;8.40;6.90;;;;;;;;;;107231;1300;22570;-30
2022/12/18 01:24:15;;;;;;;9.10;7.00;;;;;;;;;;107238;1301;22571;-30
2022/12/18 01:26:49;;;;;;;8.60;6.90;;;;;;;;;;107249;1300;22572;-30
2022/12/18 01:29:23;;;;;;;8.80;7.30;;;;;;;;;;107555;1296;22723;-30
2022/12/18 01:31:58;;;;;;;9.50;7.20;;;;;;;;;;107702;1297;22553;-30
2022/12/18 01:34:32;;;;;;;8.80;6.90;;;;;;;;;;107726;1297;26437;-30
2022/12/18 01:37:08;;;;;;;8.70;6.90;;;;;;;;;;107685;1297;22575;-30
2022/12/18 01:39:41;;;;;;;9.40;7.10;;;;;;;;;;107284;1286;25488;-30
2022/12/18 01:42:17;;;;;;;9.10;7.30;;;;;;;;;;107224;1300;25423;-31
2022/12/18 01:45:09;;;;;;;8.60;6.70;;;;;;;;;;107239;1286;22577;-30
2022/12/18 01:47:49;;;;;;;7.70;6.60;;;;;;;;;;107229;1286;24817;-30
2022/12/18 01:50:26;;;;;;;9.40;7.50;;;;;;;;;;107633;1283;25304;-30
2022/12/18 01:53:04;;;;;;;8.90;7.20;;;;;;;;;;107710;1284;22559;-30
2022/12/18 01:55:47;;;;;;;8.40;6.80;;;;;;;;;;107679;1292;25375;-29
2022/12/18 01:58:23;;;;;;;8.50;7.00;;;;;;;;;;107658;1282;26598;-29
2022/12/18 02:00:58;;;;;;;9.60;7.10;;;;;;;;;;107226;1295;22575;-29
2022/12/18 02:03:31;;;;;;;8.80;7.00;;;;;;;;;;107243;1287;22579;-29
2022/12/18 02:06:14;;;;;;;8.90;6.90;;;;;;;;;;107279;1300;25302;-30
2022/12/18 02:09:02;;;;;;;9.00;6.90;;;;;;;;;;107258;1282;22563;-29
2022/12/18 02:11:52;;;;;;;8.00;6.20;;;;;;;;;;107716;1297;26068;-30
2022/12/18 02:14:38;;;;;;;10.00;7.30;;;;;;;;;;107716;1282;24875;-29
2022/12/18 02:17:19;;;;;;;9.80;7.60;;;;;;;;;;107708;1297;23859;-30
2022/12/18 02:20:13;;;;;;;8.90;7.10;;;;;;;;;;107460;1286;22932;-30
2022/12/18 02:22:58;;;;;;;;;;;;;;;;;;107280;1301;22536;-30
2022/12/18 02:25:59;;;;;;;9.20;6.60;;;;;;;;;;107264;1300;22561;-30
2022/12/18 02:28:38;;;;;;;9.10;6.90;;;;;;;;;;107229;1286;22579;-30
2022/12/18 02:31:17;;;;;;;9.50;7.20;;;;;;;;;;107613;1281;22560;-30
2022/12/18 02:33:54;;;;;;;9.40;7.30;;;;;;;;;;107744;1297;22573;-30
2022/12/18 02:36:30;;;;;;;9.10;7.20;;;;;;;;;;107737;1297;22558;-30
2022/12/18 02:39:06;;;;;;;9.20;6.80;;;;;;;;;;107705;1282;22588;-30
2022/12/18 02:41:43;;;;;;;8.70;7.00;;;;;;;;;;107665;1283;23023;-30
2022/12/18 02:44:17;;;;;;;9.20;7.00;;;;;;;;;;107692;1282;22562;-30
2022/12/18 02:46:54;;;;;;;8.40;7.10;;;;;;;;;;107711;1297;25298;-30
2022/12/18 02:49:48;;;;;;;9.30;7.30;;;;;;;;;;107721;1297;22561;-30
2022/12/18 02:52:35;;;;;;;9.30;6.70;;;;;;;;;;107231;1285;22575;-30
2022/12/18 02:55:23;;;;;;;9.50;7.00;;;;;;;;;;107263;1300;23247;-30
2022/12/18 02:58:01;;;;;;;9.70;7.00;;;;;;;;;;107259;1286;22590;-28
2022/12/18 03:00:44;;;;;;;9.20;6.60;;;;;;;;;;107298;1286;22564;-28
2022/12/18 03:03:29;;;;;;;9.20;7.10;;;;;;;;;;107721;1297;23370;-28
2022/12/18 03:06:05;;;;;;;;;;;;;;;;;;107702;1297;22541;-28
2022/12/18 03:08:46;;;;;;;9.30;6.80;;;;;;;;;;107737;1283;24890;-28
2022/12/18 03:12:22;;;;;;;9.60;7.10;;;;;;;;;;107477;1286;25402;-28
2022/12/18 03:14:18;;;;;;;8.70;6.80;;;;;;;;;;107225;1299;22586;-28
2022/12/18 03:16:55;;;;;;;9.80;7.10;;;;;;;;;;107250;1300;22582;-27
2022/12/18 03:19:34;;;;;;;9.70;7.20;;;;;;;;;;107263;1300;24903;-28
2022/12/18 03:22:10;;;;;;;8.10;6.70;;;;;;;;;;107526;1282;24809;-28
2022/12/18 03:24:44;;;;;;;9.30;6.90;;;;;;;;;;107711;1297;24923;-28
2022/12/18 03:27:22;;;;;;;9.80;6.90;;;;;;;;;;107713;1297;22569;-28
2022/12/18 03:30:07;;;;;;;8.40;6.80;;;;;;;;;;107693;1293;22566;-28
2022/12/18 03:32:47;;;;;;;8.90;7.10;;;;;;;;;;107323;1285;22591;-27
2022/12/18 03:35:27;;;;;;;9.60;7.00;;;;;;;;;;107260;1288;22572;-28
2022/12/18 03:38:01;;;;;;;9.00;7.10;;;;;;;;;;107273;1300;22590;-28
2022/12/18 03:40:46;;;;;;;10.20;7.70;;;;;;;;;;107279;1285;22580;-28
2022/12/18 03:43:32;;;;;;;8.60;6.90;;;;;;;;;;107676;1286;22630;-28
2022/12/18 03:46:15;;;;;;;9.00;7.10;;;;;;;;;;107717;1283;22639;-28
2022/12/18 03:48:57;;;;;;;9.10;7.00;;;;;;;;;;107720;1297;22595;-28
2022/12/18 03:51:40;;;;;;;7.80;6.10;;;;;;;;;;107612;1284;22580;-28
2022/12/18 03:54:15;;;;;;;9.20;7.20;;;;;;;;;;107256;1293;22617;-28
2022/12/18 03:56:56;;;;;;;9.80;7.30;;;;;;;;;;107257;1300;22582;-28
2022/12/18 03:59:31;;;;;;;11.00;7.40;;;;;;;;;;107262;1301;22586;-28
2022/12/18 04:02:08;;;;;;;10.00;6.80;;;;;;;;;;107339;1283;22572;-28
2022/12/18 04:04:43;;;;;;;9.80;7.30;;;;;;;;;;107714;1297;25324;-28
2022/12/18 04:07:18;;;;;;;9.60;6.80;;;;;;;;;;107727;1297;22568;-28
2022/12/18 04:09:54;;;;;;;9.10;6.80;;;;;;;;;;107697;1297;22548;-28
2022/12/18 04:12:31;;;;;;;9.80;6.40;;;;;;;;;;107513;1286;22573;-28
2022/12/18 04:15:06;;;;;;;9.10;7.00;;;;;;;;;;107266;1300;25394;-28
2022/12/18 04:17:43;;;;;;;9.10;6.80;;;;;;;;;;107287;1285;22574;-28
2022/12/18 04:20:17;;;;;;;9.00;7.00;;;;;;;;;;107249;1300;22591;-28
2022/12/18 04:22:51;;;;;;;10.00;7.20;;;;;;;;;;107420;1281;22561;-28
2022/12/18 04:25:27;;;;;;;8.80;6.50;;;;;;;;;;107697;1290;24163;-28
2022/12/18 04:27:59;;;;;;;;;;;;;;;;;;107722;1283;22667;-28
2022/12/18 04:30:32;;;;;;;9.80;7.00;;;;;;;;;;107732;1297;22553;-28
2022/12/18 04:33:06;;;;;;;9.10;7.00;;;;;;;;;;107456;1286;22582;-28
2022/12/18 04:35:42;;;;;;;9.00;6.90;;;;;;;;;;107256;1289;22568;-28
2022/12/18 04:38:16;;;;;;;8.40;6.80;;;;;;;;;;107226;1300;22555;-28
2022/12/18 04:40:50;;;;;;;9.20;6.90;;;;;;;;;;107249;1301;22573;-28
2022/12/18 04:43:24;;;;;;;9.00;7.30;;;;;;;;;;107438;1283;22564;-28
2022/12/18 04:46:04;;;;;;;9.60;6.90;;;;;;;;;;107709;1297;22566;-28
2022/12/18 04:48:38;;;;;;;8.50;6.60;;;;;;;;;;107703;1290;22575;-28
2022/12/18 04:51:12;;;;;;;9.00;6.90;;;;;;;;;;107711;1297;22563;-28
2022/12/18 04:53:45;;;;;;;9.00;6.70;;;;;;;;;;107401;1285;22564;-28
2022/12/18 04:56:19;;;;;;;8.80;6.90;;;;;;;;;;107253;1286;22571;-28
2022/12/18 04:58:53;;;;;;;9.70;7.10;;;;;;;;;;107239;1289;24664;-28
2022/12/18 05:01:25;;;;;;;;;;;;;;;;;;107268;1300;24854;-28
2022/12/18 05:04:05;;;;;;;8.70;6.40;;;;;;;;;;107484;1283;22574;-28
2022/12/18 05:06:38;;;;;;;9.80;6.20;;;;;;;;;;107707;1297;24870;-28
2022/12/18 05:09:12;;;;;;;10.00;6.80;;;;;;;;;;107675;1283;22556;-28
2022/12/18 05:11:46;;;;;;;8.70;6.70;;;;;;;;;;107706;1298;22577;-28
2022/12/18 05:14:22;;;;;;;8.40;6.20;;;;;;;;;;107336;1286;22533;-28
2022/12/18 05:16:56;;;;;;;9.20;6.30;;;;;;;;;;107203;1300;22568;-28
2022/12/18 05:19:33;;;;;;;8.80;6.40;;;;;;;;;;107231;1300;24814;-28
2022/12/18 05:22:07;;;;;;;9.20;6.90;;;;;;;;;;107232;1300;22579;-28
2022/12/18 05:24:41;;;;;;;9.80;6.80;;;;;;;;;;107518;1281;22581;-27
2022/12/18 05:27:15;;;;;;;10.10;6.80;;;;;;;;;;107701;1297;25285;-27
2022/12/18 05:29:49;;;;;;;9.20;6.80;;;;;;;;;;107720;1283;22567;-27
2022/12/18 05:32:25;;;;;;;9.30;7.70;;;;;;;;;;107688;1283;24854;-28
2022/12/18 05:34:59;;;;;;;10.30;6.90;;;;;;;;;;107316;1285;22572;-28
2022/12/18 05:37:33;;;;;;;9.80;7.30;;;;;;;;;;107249;1285;23471;-29
2022/12/18 05:40:15;;;;;;;9.10;7.00;;;;;;;;;;107262;1285;25255;-28
2022/12/18 05:42:48;;;;;;;9.20;6.90;;;;;;;;;;107267;1301;22579;-28
2022/12/18 05:45:22;;;;;;;10.30;7.70;;;;;;;;;;107572;1283;22546;-29
2022/12/18 05:47:56;;;;;;;10.00;7.40;;;;;;;;;;107454;1296;312922;-29
2022/12/18 05:50:30;;;;;;;9.30;7.00;;;;;;;;;;107689;1286;23709;-29
2022/12/18 05:53:04;;;;;;;9.40;7.50;;;;;;;;;;107701;1297;22556;-29
2022/12/18 05:55:40;;;;;;;10.50;7.50;;;;;;;;;;107269;1286;26427;-29
2022/12/18 05:58:16;;;;;;;9.40;7.20;;;;;;;;;;107273;1300;22583;-29
2022/12/18 06:00:50;;;;;;;9.10;7.20;;;;;;;;;;107232;1286;22564;-28
2022/12/18 06:03:23;;;;;;;9.00;7.10;;;;;;;;;;107233;1301;22564;-28
2022/12/18 06:06:15;;;;;;;9.50;7.20;;;;;;;;;;107651;1292;22560;-28
2022/12/18 06:08:49;;;;;;;9.30;7.70;;;;;;;;;;107711;1282;22564;-29
2022/12/18 06:11:26;;;;;;;10.40;7.30;;;;;;;;;;107682;1297;22569;-29
2022/12/18 06:14:00;;;;;;;9.50;7.20;;;;;;;;;;107674;1298;22575;-28
2022/12/18 06:16:34;;;;;;;8.70;6.80;;;;;;;;;;107279;1300;22560;-28
2022/12/18 06:19:13;;;;;;;9.60;7.30;;;;;;;;;;107267;1301;22590;-28
2022/12/18 06:21:47;;;;;;;9.70;7.20;;;;;;;;;;107264;1299;25399;-28
2022/12/18 06:24:21;;;;;;;9.90;7.50;;;;;;;;;;107262;1292;22536;-28
2022/12/18 06:26:54;;;;;;;10.90;7.70;;;;;;;;;;107707;1289;22688;-28
2022/12/18 06:29:28;;;;;;;10.40;7.90;;;;;;;;;;107722;1292;22678;-28
2022/12/18 06:32:02;;;;;;;10.50;7.90;;;;;;;;;;107692;1283;24615;-28
2022/12/18 06:34:37;;;;;;;11.00;7.40;;;;;;;;;;107636;1282;23092;-28
2022/12/18 06:37:11;;;;;;;10.50;7.10;;;;;;;;;;107264;1286;24030;-28
2022/12/18 06:39:45;;;;;;;9.40;7.40;;;;;;;;;;107253;1287;24857;-28
2022/12/18 06:42:18;;;;;;;10.10;7.30;;;;;;;;;;107236;1287;24825;-28
2022/12/18 06:44:52;;;;;;;9.00;7.00;;;;;;;;;;107272;1296;25022;-28
2022/12/18 06:47:26;;;;;;;10.50;7.80;;;;;;;;;;107703;1295;22560;-28
2022/12/18 06:49:59;;;;;;;9.60;7.60;;;;;;;;;;107713;1297;22573;-28
2022/12/18 06:52:35;;;;;;;10.60;7.50;;;;;;;;;;107703;1283;22585;-28
2022/12/18 06:55:10;;;;;;;9.90;7.60;;;;;;;;;;107645;1297;22701;-28
2022/12/18 06:57:44;;;;;;;8.90;6.90;;;;;;;;;;107263;1300;22585;-28
2022/12/18 07:00:20;;;;;;;10.20;7.40;;;;;;;;;;107257;1286;22582;-28
2022/12/18 07:02:53;;;;;;;10.60;7.90;;;;;;;;;;107284;1300;22554;-28
2022/12/18 07:05:27;;;;;;;10.00;7.60;;;;;;;;;;107265;1296;23459;-28
2022/12/18 07:08:01;;;;;;;10.30;7.80;;;;;;;;;;107710;1283;22567;-27
2022/12/18 07:10:35;;;;;;;12.00;8.10;;;;;;;;;;107714;1298;22579;-28
2022/12/18 07:13:07;;;;;;;;;;;;;;;;;;107713;1297;22542;-28
2022/12/18 07:15:41;;;;;;;10.80;7.90;;;;;;;;;;107666;1285;22572;-28
2022/12/18 07:18:15;;;;;;;11.50;8.00;;;;;;;;;;107245;1300;25400;-28
2022/12/18 07:20:48;;;;;;;10.10;7.80;;;;;;;;;;107252;1292;25462;-28
2022/12/18 07:23:22;;;;;;;10.00;7.20;;;;;;;;;;107268;1287;22571;-28
2022/12/18 07:26:00;;;;;;;10.60;7.70;;;;;;;;;;107269;1298;22564;-28
2022/12/18 07:28:34;;;;;;;9.40;7.20;;;;;;;;;;107693;1289;22573;-28
2022/12/18 07:31:10;;;;;;;9.70;7.40;;;;;;;;;;107713;1297;25327;-29
2022/12/18 07:33:44;;;;;;;10.80;7.40;;;;;;;;;;107703;1297;25338;-29
2022/12/18 07:36:19;;;;;;;10.00;7.90;;;;;;;;;;107650;1297;22574;-29
2022/12/18 07:38:53;;;;;;;11.00;7.60;;;;;;;;;;107237;1292;22581;-29
2022/12/18 07:41:26;;;;;;;10.20;8.20;;;;;;;;;;107258;1286;22585;-29
2022/12/18 07:43:59;;;;;;;11.00;7.80;;;;;;;;;;107236;1283;22570;-29
2022/12/18 07:46:33;;;;;;;;;;;;;;;;;;107237;1286;22551;-29
2022/12/18 07:49:07;;;;;;;11.40;8.00;;;;;;;;;;107709;1282;22569;-29
2022/12/18 07:51:40;;;;;;;10.20;7.70;;;;;;;;;;107695;1297;24210;-29
2022/12/18 07:54:12;;;;;;;;;;;;;;;;;;107698;1297;24316;-29
2022/12/18 07:56:47;;;;;;;10.10;7.80;;;;;;;;;;107667;1298;24915;-29
2022/12/18 07:59:21;;;;;;;9.90;8.00;;;;;;;;;;107256;1289;22574;-29
2022/12/18 08:01:56;;;;;;;11.40;8.60;;;;;;;;;;107259;1287;22568;-29
2022/12/18 08:04:28;;;;;;;;;;;;;;;;;;107279;1286;22559;-29
2022/12/18 08:07:01;;;;;;;10.80;7.70;;;;;;;;;;107254;1296;22596;-29
2022/12/18 08:09:35;;;;;;;10.80;7.80;;;;;;;;;;107679;1287;22564;-29
2022/12/18 08:12:10;;;;;;;10.70;8.10;;;;;;;;;;107693;1297;25297;-29
2022/12/18 08:14:43;;;;;;;10.00;7.70;;;;;;;;;;107747;1298;22570;-29
2022/12/18 08:17:15;;;;;;;;;;;;;;;;;;107682;1283;22588;-29
2022/12/18 08:19:48;;;;;;;10.10;7.80;;;;;;;;;;107261;1295;25249;-29
2022/12/18 08:22:20;;;;;;;;;;;;;;;;;;107275;1300;24896;-28
2022/12/18 08:24:54;;;;;;;9.70;7.30;;;;;;;;;;107259;1300;25296;-29
2022/12/18 08:27:27;;;;;;;11.20;8.00;;;;;;;;;;107264;1291;22558;-29
2022/12/18 08:30:02;;;;;;;10.40;7.70;;;;;;;;;;107695;1296;22578;-29
2022/12/18 08:32:38;;;;;;;10.30;7.80;;;;;;;;;;107724;1283;22586;-28
2022/12/18 08:35:13;;;;;;;11.00;8.20;;;;;;;;;;107690;1283;22548;-29
2022/12/18 08:37:51;;;;;;;11.20;8.40;;;;;;;;;;107636;1283;22598;-29
2022/12/18 08:40:24;;;;;;;10.80;8.30;;;;;;;;;;107254;1299;22567;-29
2022/12/18 08:45:49;;;;;;;10.60;7.80;;;;;;;;;;107231;1300;24784;-28
2022/12/18 08:48:23;;;;;;;10.50;7.80;;;;;;;;;;107295;1283;22565;-28
2022/12/18 08:51:01;;;;;;;10.40;8.20;;;;;;;;;;107685;1297;22567;-28
2022/12/18 08:53:35;;;;;;;10.90;8.40;;;;;;;;;;107703;1283;22558;-28
2022/12/18 08:56:11;;;;;;;10.90;8.30;;;;;;;;;;107694;1283;22568;-29
2022/12/18 08:58:44;;;;;;;10.50;7.70;;;;;;;;;;107537;1283;23411;-28
2022/12/18 09:01:21;;;;;;;10.60;8.10;;;;;;;;;;107246;1285;22580;-28
2022/12/18 09:03:55;;;;;;;11.10;8.50;;;;;;;;;;107251;1300;22558;-28
2022/12/18 09:06:27;;;;;;;;;;;;;;;;;;107262;1300;22558;-28
2022/12/18 09:09:01;;;;;;;11.20;8.10;;;;;;;;;;107389;1282;25331;-28
2022/12/18 09:11:36;;;;;;;11.70;8.40;;;;;;;;;;107684;1297;22553;-28
2022/12/18 09:14:10;;;;;;;11.10;8.50;;;;;;;;;;107687;1297;22665;-28
2022/12/18 09:16:44;;;;;;;10.90;7.80;;;;;;;;;;107727;1297;23010;-28
2022/12/18 09:19:18;;;;;;;10.60;8.00;;;;;;;;;;107511;1283;24527;-28
2022/12/18 09:21:51;;;;;;;12.10;8.20;;;;;;;;;;107257;1300;22573;-28
2022/12/18 09:24:23;;;;;;;;;;;;;;;;;;107270;1300;24843;-28
2022/12/18 09:26:58;;;;;;;10.40;7.80;;;;;;;;;;107251;1289;24929;-28
2022/12/18 09:29:32;;;;;;;11.00;8.40;;;;;;;;;;107352;1286;22573;-28
2022/12/18 09:32:06;;;;;;;10.90;8.00;;;;;;;;;;107701;1292;24949;-28
2022/12/18 09:34:39;;;;;;;11.80;8.40;;;;;;;;;;107708;1282;22563;-28
2022/12/18 09:37:13;;;;;;;10.50;8.00;;;;;;;;;;107716;1297;26510;-28
2022/12/18 09:39:47;;;;;;;10.50;8.20;;;;;;;;;;107505;1286;23709;-28
2022/12/18 09:42:24;;;;;;;11.10;7.50;;;;;;;;;;107256;1300;22593;-28
2022/12/18 09:44:58;;;;;;;11.10;8.50;;;;;;;;;;107242;1301;22584;-28
2022/12/18 09:47:38;;;;;;;11.00;8.00;;;;;;;;;;107237;1300;22577;-28
2022/12/18 09:50:28;;;;;;;11.00;8.50;;;;;;;;;;107420;1283;22556;-28
2022/12/18 09:53:07;;;;;;;13.00;8.40;;;;;;;;;;107688;1297;22581;-28
2022/12/18 09:55:46;;;;;;;11.50;9.40;;;;;;;;;;107692;1297;22596;-28
2022/12/18 09:58:28;;;;;;;12.10;10.10;;;;;;;;;;107699;1297;22565;-28
2022/12/18 10:01:01;;;;;;;13.50;11.70;;;;;;;;;;107329;1286;24914;-28
2022/12/18 10:03:35;;;;;;;15.20;12.90;;;;;;;;;;107241;1300;22612;-28
2022/12/18 10:06:16;;;;;;;14.30;12.80;;;;;;;;;;107270;1293;22608;-28
2022/12/18 10:08:59;;;;;;;17.20;14.20;;;;;;;;;;107267;1284;24809;-28
2022/12/18 10:11:44;;;;;;;15.90;14.20;;;;;;;;;;107624;1281;22573;-29
2022/12/18 10:14:27;;;;;;;17.10;15.30;;;;;;;;;;107878;1294;22564;-29
2022/12/18 10:17:15;;;;;;;18.50;16.70;;;;;;;;;;107841;1295;22517;-29
2022/12/18 10:19:56;;;;;;;17.10;14.70;;;;;;;;;;107739;1283;22603;-29
2022/12/18 10:22:47;;;;;;;17.80;15.40;;;;;;;;;;107566;1298;22576;-29
2022/12/18 10:25:28;;;;;;;16.20;14.40;;;;;;;;;;107539;1299;25391;-29
2022/12/18 10:28:11;;;;;;;16.20;14.30;;;;;;;;;;107524;1298;25406;-29
2022/12/18 10:30:46;;;;;;;18.70;14.70;;;;;;;;;;107661;1280;25292;-27
2022/12/18 10:33:24;;;;;;;17.30;14.80;;;;;;;;;;107812;1280;25393;-28
2022/12/18 10:35:58;;;;;;;15.60;14.00;;;;;;;;;;107834;1295;22565;-27
2022/12/18 10:38:33;;;;;;;16.00;14.10;;;;;;;;;;107804;1295;22585;-27
2022/12/18 10:41:26;;;;;;;15.80;14.20;;;;;;;;;;107649;1280;24866;-27
2022/12/18 10:44:20;;;;;;;15.70;13.70;;;;;;;;;;107536;1298;22557;-29
2022/12/18 10:47:03;;;;;;;16.50;13.80;;;;;;;;;;107503;1298;22627;-28
2022/12/18 10:49:54;;;;;;;16.00;14.10;;;;;;;;;;107547;1283;22582;-29
2022/12/18 10:52:29;;;;;;;14.90;12.70;;;;;;;;;;107778;1280;22576;-28
2022/12/18 10:55:07;;;;;;;15.10;13.60;;;;;;;;;;107810;1279;23899;-28
2022/12/18 10:57:42;;;;;;;16.20;13.70;;;;;;;;;;107865;1295;22577;-28
2022/12/18 11:00:30;;;;;;;16.30;14.20;;;;;;;;;;107851;1294;22570;-28
2022/12/18 11:03:03;;;;;;;16.40;13.70;;;;;;;;;;107622;1283;23836;-28
2022/12/18 11:05:38;;;;;;;15.00;12.90;;;;;;;;;;107557;1298;24873;-29
2022/12/18 11:08:23;;;;;;;14.50;12.80;;;;;;;;;;107546;1286;22562;-30
2022/12/18 11:10:57;;;;;;;14.70;13.10;;;;;;;;;;107560;1298;22560;-31
2022/12/18 11:13:30;;;;;;;;;;;;;;;;;;107806;1295;22653;-32
2022/12/18 11:16:04;;;;;;;14.30;12.50;;;;;;;;;;107805;1286;22563;-32
2022/12/18 11:18:39;;;;;;;16.70;13.10;;;;;;;;;;107820;1295;22579;-29
2022/12/18 11:21:15;;;;;;;14.20;12.50;;;;;;;;;;107808;1295;22567;-29
2022/12/18 11:23:52;;;;;;;15.30;13.20;;;;;;;;;;107536;1289;24223;-30
2022/12/18 11:26:39;;;;;;;16.10;13.20;;;;;;;;;;107534;1298;22634;-30
2022/12/18 11:29:19;;;;;;;13.40;11.50;;;;;;;;;;107538;1298;22574;-31
2022/12/18 11:31:53;;;;;;;16.60;12.40;;;;;;;;;;107586;1279;22576;-29
2022/12/18 11:34:31;;;;;;;15.50;12.20;;;;;;;;;;107824;1286;22670;-29
2022/12/18 11:37:09;;;;;;;15.40;11.90;;;;;;;;;;107835;1295;22674;-29
2022/12/18 11:39:47;;;;;;;14.40;11.90;;;;;;;;;;107844;1295;22565;-28
2022/12/18 11:42:28;;;;;;;16.00;12.30;;;;;;;;;;107704;1288;22582;-28
2022/12/18 11:45:19;;;;;;;16.40;12.40;;;;;;;;;;107660;1297;22578;-28
2022/12/18 11:48:02;;;;;;;16.90;12.80;;;;;;;;;;107329;1289;30979;-28
2022/12/18 11:50:47;;;;;;;14.80;12.70;;;;;;;;;;107547;1294;25339;-32
2022/12/18 11:53:22;;;;;;;16.60;11.80;;;;;;;;;;107711;1280;25229;-30
2022/12/18 11:56:05;;;;;;;14.20;11.90;;;;;;;;;;107835;1294;25029;-30
2022/12/18 11:58:50;;;;;;;13.90;11.70;;;;;;;;;;107833;1294;24772;-31
2022/12/18 12:01:40;;;;;;;15.10;12.30;;;;;;;;;;107855;1295;26049;-31
2022/12/18 12:04:39;;;;;;;15.60;12.80;;;;;;;;;;107798;1280;22941;-30
2022/12/18 12:07:30;;;;;;;15.60;12.50;;;;;;;;;;106875;1294;62469;-31
2022/12/18 12:10:18;;;;;;;16.50;12.70;;;;;;;;;;107806;1294;22702;-30
2022/12/18 12:13:10;;;;;;;16.00;12.60;;;;;;;;;;107790;1280;22570;-30
2022/12/18 12:15:55;;;;;;;16.20;13.00;;;;;;;;;;107839;1294;22592;-30
2022/12/18 12:18:43;;;;;;;15.70;12.90;;;;;;;;;;107837;1294;24769;-29
2022/12/18 12:21:24;;;;;;;15.90;12.30;;;;;;;;;;107702;1295;22567;-31
2022/12/18 12:24:06;;;;;;;14.60;12.40;;;;;;;;;;107637;1289;26498;-31
2022/12/18 12:26:49;;;;;;;15.80;12.70;;;;;;;;;;107661;1282;22579;-31
2022/12/18 12:29:40;;;;;;;15.50;12.60;;;;;;;;;;107659;1298;22564;-31
2022/12/18 12:32:26;;;;;;;16.00;13.40;;;;;;;;;;107630;1297;22576;-30
2022/12/18 12:35:20;;;;;;;16.40;13.50;;;;;;;;;;107652;1283;26120;-31
2022/12/18 12:38:06;;;;;;;16.00;12.60;;;;;;;;;;107696;1295;22565;-31
2022/12/18 12:40:44;;;;;;;19.00;13.20;;;;;;;;;;107676;1295;22564;-30
2022/12/18 12:43:42;;;;;;;16.40;13.20;;;;;;;;;;107646;1283;22558;-31
2022/12/18 12:46:40;;;;;;;17.30;12.70;;;;;;;;;;107683;1282;26132;-31
2022/12/18 12:49:21;;;;;;;15.70;12.50;;;;;;;;;;107686;1286;22564;-27
2022/12/18 12:52:01;;;;;;;15.80;12.80;;;;;;;;;;107693;1295;22594;-28
2022/12/18 12:54:36;;;;;;;15.20;12.50;;;;;;;;;;107640;1292;22559;-29
2022/12/18 12:57:16;;;;;;;19.20;13.90;;;;;;;;;;107626;1297;22566;-29
2022/12/18 13:00:01;;;;;;;16.70;12.30;;;;;;;;;;107617;1283;22560;-30
2022/12/18 13:02:40;;;;;;;16.00;12.90;;;;;;;;;;107642;1298;26561;-30
2022/12/18 13:05:25;;;;;;;16.90;12.50;;;;;;;;;;107594;1282;22678;-30
2022/12/18 13:08:04;;;;;;;14.90;11.90;;;;;;;;;;107638;1298;24904;-32
2022/12/18 13:10:42;;;;;;;15.30;12.20;;;;;;;;;;107639;1297;23753;-28
2022/12/18 13:13:17;;;;;;;16.60;12.50;;;;;;;;;;107637;1281;22561;-30
2022/12/18 13:16:10;;;;;;;15.10;12.10;;;;;;;;;;107598;1295;22573;-30
2022/12/18 13:18:54;;;;;;;16.80;13.00;;;;;;;;;;107657;1297;22573;-31
2022/12/18 13:21:33;;;;;;;15.80;12.90;;;;;;;;;;107679;1297;22580;-31
2022/12/18 13:24:27;;;;;;;15.10;12.70;;;;;;;;;;107646;1283;22551;-32
2022/12/18 13:27:02;;;;;;;15.30;12.80;;;;;;;;;;107685;1283;23846;-32
2022/12/18 13:29:47;;;;;;;17.80;12.40;;;;;;;;;;107695;1298;22564;-32
2022/12/18 13:32:26;;;;;;;16.30;12.30;;;;;;;;;;107644;1297;24855;-32
2022/12/18 13:35:39;;;;;;;15.70;12.70;;;;;;;;;;107619;1283;23378;-31
2022/12/18 13:38:33;;;;;;;16.10;13.10;;;;;;;;;;107648;1282;24805;-32
2022/12/18 13:41:24;;;;;;;17.50;12.80;;;;;;;;;;107658;1297;22559;-32
2022/12/18 13:44:13;;;;;;;16.90;12.90;;;;;;;;;;107650;1298;23382;-32
2022/12/18 13:46:49;;;;;;;15.80;13.00;;;;;;;;;;107497;1283;340861;-32
2022/12/18 13:49:31;;;;;;;15.90;11.50;;;;;;;;;;107660;1282;22736;-32
2022/12/18 13:52:18;;;;;;;14.40;11.90;;;;;;;;;;107658;1297;26421;-32
2022/12/18 13:54:56;;;;;;;16.70;12.60;;;;;;;;;;107595;1282;22550;-32
2022/12/18 13:57:35;;;;;;;16.50;12.40;;;;;;;;;;107711;1296;22568;-32
2022/12/18 14:00:29;;;;;;;16.90;12.60;;;;;;;;;;107683;1280;22564;-32
2022/12/18 14:03:16;;;;;;;15.40;12.40;;;;;;;;;;107711;1286;22568;-32
2022/12/18 14:06:02;;;;;;;16.30;12.60;;;;;;;;;;107657;1284;22646;-31
2022/12/18 14:08:42;;;;;;;15.60;12.40;;;;;;;;;;107698;1289;22562;-30
2022/12/18 14:11:24;;;;;;;16.50;12.10;;;;;;;;;;107722;1296;22585;-32
2022/12/18 14:14:00;;;;;;;16.50;12.80;;;;;;;;;;107701;1280;22599;-31
2022/12/18 14:16:34;;;;;;;17.80;12.50;;;;;;;;;;107645;1281;22682;-31
2022/12/18 14:19:14;;;;;;;16.20;12.40;;;;;;;;;;107693;1288;25420;-31
2022/12/18 14:21:52;;;;;;;16.10;12.90;;;;;;;;;;107695;1289;22577;-31
2022/12/18 14:24:25;;;;;;;17.20;13.50;;;;;;;;;;107712;1296;22554;-31
2022/12/18 14:27:24;;;;;;;15.60;12.40;;;;;;;;;;107672;1283;22563;-32
2022/12/18 14:29:58;;;;;;;15.60;12.50;;;;;;;;;;107651;1296;22563;-32
2022/12/18 14:32:31;;;;;;;16.50;12.60;;;;;;;;;;107680;1295;25413;-32
2022/12/18 14:35:15;;;;;;;;;;;;;;;;;;107734;1281;22550;-30
2022/12/18 14:37:49;;;;;;;15.50;12.30;;;;;;;;;;107818;1292;25397;-32
2022/12/18 14:40:23;;;;;;;17.00;13.10;;;;;;;;;;107725;1295;22571;-31
2022/12/18 14:42:57;;;;;;;17.00;13.10;;;;;;;;;;107696;1296;22562;-31
2022/12/18 14:45:44;;;;;;;16.40;12.60;;;;;;;;;;107714;1296;24241;-31
2022/12/18 14:48:22;;;;;;;15.00;12.80;;;;;;;;;;107803;1280;22562;-32
2022/12/18 14:51:02;;;;;;;17.20;13.30;;;;;;;;;;107738;1292;22669;-32
2022/12/18 14:53:41;;;;;;;16.80;13.10;;;;;;;;;;107748;1286;22596;-31
2022/12/18 14:56:22;;;;;;;15.50;12.60;;;;;;;;;;107664;1282;25479;-30
2022/12/18 14:58:59;;;;;;;16.70;12.30;;;;;;;;;;107737;1295;24889;-32
2022/12/18 15:01:35;;;;;;;16.10;12.90;;;;;;;;;;107713;1280;26395;-31
2022/12/18 15:04:29;;;;;;;15.30;12.20;;;;;;;;;;107736;1295;25377;-32
2022/12/18 15:07:16;;;;;;;17.20;12.30;;;;;;;;;;107665;1280;25335;-30
2022/12/18 15:10:14;;;;;;;15.80;12.00;;;;;;;;;;107746;1295;22576;-30
2022/12/18 15:12:51;;;;;;;16.30;12.60;;;;;;;;;;107741;1295;22572;-30
2022/12/18 15:15:51;;;;;;;16.80;13.00;;;;;;;;;;107726;1295;22579;-29
2022/12/18 15:18:33;;;;;;;16.00;12.80;;;;;;;;;;107670;1293;24202;-30
2022/12/18 15:21:16;;;;;;;15.80;12.40;;;;;;;;;;107677;1295;22578;-31
2022/12/18 15:23:52;;;;;;;16.00;12.50;;;;;;;;;;107698;1281;22671;-30
2022/12/18 15:26:26;;;;;;;15.40;12.00;;;;;;;;;;107734;1295;25338;-30
2022/12/18 15:29:02;;;;;;;16.90;12.80;;;;;;;;;;107651;1283;22578;-31
2022/12/18 15:31:37;;;;;;;15.80;12.70;;;;;;;;;;107696;1295;22559;-30